Hlavní strana
METAR-TAF:

METAR-TAF

Letiště :

San Andrés, Kolumbie

zeměpisná šířka: 12-35N, zeměpisná délka: 081-43W, výška: 1 m

Aktuální stav počasí

Zpráva byla vytvořena před 49 minutami, v 03:00 UTC
Východoseverovýchodní vítr 13 kt
Teplota 27°C
Vlhkost vzduchu 79%
Tlak 1016 hPa
Viditelnost 10 km a více
Skoro jasno ve výšce 1700 ft

METAR: SKSP 160300Z 06013KT 9999 FEW017 27/23 A3001

Čas: 22:49 (03:49 UTC)

Předpověď počasí

Zpráva byla vytvořena před 4 hodinami a 49 minutami, v 23:00 UTC
Předpověď platná od 16 v 00 UTC do 16 v 24 UTC
Severovýchodní vítr 14 kt
Viditelnost 10 km a více
Skoro jasno ve výšce 1800 ft
Polojasno ve výšce 20000 ft
Pravděpodobnost 40% :
Dočasný
od 16 v 05 UTC do 16 v 11 UTC
Viditelnost: 8000 m
Polojasno ve výšce 1500 ft, Vertikální cumulus.
dešťové přeháňky

TAF: SKSP 152300Z 1600/1624 04014KT 9999 FEW018 SCT200 PROB40 TEMPO 1605/1611 8000 SHRA SCT015TCU TX31/1619Z TN26/1611Z

Stav a předpovědi počasí z více než 4 000 letišť (zprávy METAR a TAF).

Červené a žluté tečky na mapě představují dostupné meteorologické stanice.

Když kurzor umístíte na tečku, zobrazí se název stanice.

Pak kliknutím zobrazíte stav a předpověď počasí.

Chcete-li změnit mapu, kliknutím na zelené tlačítko se znaménkem +mapu přiblížíte, kliknutím na zelené tlačítko se znaménkem – mapu oddálíte a kliknutím na zelené šipky přejdete na sousední mapy.


METAR-TAF: